sensor_id;sensor_type;location;lat;lon;timestamp;P1;durP1;ratioP1;P2;durP2;ratioP2
28431;SDS011;15664;51.302;7.744;2023-05-17T00:00:29;6.13;;;1.50;;
28431;SDS011;15664;51.302;7.744;2023-05-17T00:02:55;7.10;;;1.80;;
28431;SDS011;15664;51.302;7.744;2023-05-17T00:05:21;4.10;;;1.38;;
28431;SDS011;15664;51.302;7.744;2023-05-17T00:07:46;6.80;;;1.40;;
28431;SDS011;15664;51.302;7.744;2023-05-17T00:10:12;3.58;;;1.50;;
28431;SDS011;15664;51.302;7.744;2023-05-17T00:12:38;9.80;;;1.70;;
28431;SDS011;15664;51.302;7.744;2023-05-17T00:15:03;4.20;;;1.33;;
28431;SDS011;15664;51.302;7.744;2023-05-17T00:17:29;6.90;;;1.75;;
28431;SDS011;15664;51.302;7.744;2023-05-17T00:19:55;6.50;;;1.40;;
28431;SDS011;15664;51.302;7.744;2023-05-17T00:22:20;6.45;;;1.95;;
28431;SDS011;15664;51.302;7.744;2023-05-17T00:24:46;5.00;;;1.42;;
28431;SDS011;15664;51.302;7.744;2023-05-17T00:27:11;7.90;;;2.20;;
28431;SDS011;15664;51.302;7.744;2023-05-17T00:29:37;5.17;;;1.77;;
28431;SDS011;15664;51.302;7.744;2023-05-17T00:32:02;4.10;;;1.40;;
28431;SDS011;15664;51.302;7.744;2023-05-17T00:34:28;5.28;;;1.95;;
28431;SDS011;15664;51.302;7.744;2023-05-17T00:36:53;6.80;;;1.97;;
28431;SDS011;15664;51.302;7.744;2023-05-17T00:39:18;5.63;;;1.90;;
28431;SDS011;15664;51.302;7.744;2023-05-17T00:41:44;5.47;;;1.90;;
28431;SDS011;15664;51.302;7.744;2023-05-17T00:44:09;13.07;;;2.17;;
28431;SDS011;15664;51.302;7.744;2023-05-17T00:46:34;7.10;;;2.03;;
28431;SDS011;15664;51.302;7.744;2023-05-17T00:49:00;3.97;;;1.67;;
28431;SDS011;15664;51.302;7.744;2023-05-17T00:51:25;4.60;;;1.83;;
28431;SDS011;15664;51.302;7.744;2023-05-17T00:53:51;4.30;;;1.87;;
28431;SDS011;15664;51.302;7.744;2023-05-17T00:56:17;5.97;;;2.10;;
28431;SDS011;15664;51.302;7.744;2023-05-17T00:58:42;5.33;;;2.30;;
28431;SDS011;15664;51.302;7.744;2023-05-17T01:01:07;6.40;;;2.27;;
28431;SDS011;15664;51.302;7.744;2023-05-17T01:03:34;6.95;;;1.63;;
28431;SDS011;15664;51.302;7.744;2023-05-17T01:06:00;4.80;;;1.87;;
28431;SDS011;15664;51.302;7.744;2023-05-17T01:08:26;6.30;;;1.90;;
28431;SDS011;15664;51.302;7.744;2023-05-17T01:10:53;9.63;;;2.33;;
28431;SDS011;15664;51.302;7.744;2023-05-17T01:13:26;6.65;;;1.92;;
28431;SDS011;15664;51.302;7.744;2023-05-17T01:16:01;6.73;;;1.50;;
28431;SDS011;15664;51.302;7.744;2023-05-17T01:18:37;6.38;;;1.98;;
28431;SDS011;15664;51.302;7.744;2023-05-17T01:21:08;7.80;;;2.00;;
28431;SDS011;15664;51.302;7.744;2023-05-17T01:26:18;7.70;;;2.00;;
28431;SDS011;15664;51.302;7.744;2023-05-17T01:28:47;5.03;;;1.70;;
28431;SDS011;15664;51.302;7.744;2023-05-17T01:31:14;6.57;;;2.08;;
28431;SDS011;15664;51.302;7.744;2023-05-17T01:33:40;4.85;;;1.83;;
28431;SDS011;15664;51.302;7.744;2023-05-17T01:36:06;5.90;;;2.38;;
28431;SDS011;15664;51.302;7.744;2023-05-17T01:38:32;6.75;;;2.20;;
28431;SDS011;15664;51.302;7.744;2023-05-17T01:41:05;8.50;;;2.60;;
28431;SDS011;15664;51.302;7.744;2023-05-17T01:46:26;5.40;;;1.87;;
28431;SDS011;15664;51.302;7.744;2023-05-17T01:49:07;9.57;;;2.15;;
28431;SDS011;15664;51.302;7.744;2023-05-17T01:51:34;7.35;;;2.10;;
28431;SDS011;15664;51.302;7.744;2023-05-17T01:54:01;7.60;;;2.55;;
28431;SDS011;15664;51.302;7.744;2023-05-17T01:56:30;10.57;;;2.60;;
28431;SDS011;15664;51.302;7.744;2023-05-17T01:58:57;10.63;;;2.97;;
28431;SDS011;15664;51.302;7.744;2023-05-17T02:01:23;9.85;;;2.72;;
28431;SDS011;15664;51.302;7.744;2023-05-17T02:03:50;8.15;;;2.67;;
28431;SDS011;15664;51.302;7.744;2023-05-17T02:06:15;9.60;;;2.90;;
28431;SDS011;15664;51.302;7.744;2023-05-17T02:08:41;8.38;;;2.15;;
28431;SDS011;15664;51.302;7.744;2023-05-17T02:11:07;5.57;;;2.03;;
28431;SDS011;15664;51.302;7.744;2023-05-17T02:13:32;10.83;;;3.53;;
28431;SDS011;15664;51.302;7.744;2023-05-17T02:15:59;12.15;;;3.60;;
28431;SDS011;15664;51.302;7.744;2023-05-17T02:18:24;8.40;;;2.97;;
28431;SDS011;15664;51.302;7.744;2023-05-17T02:20:50;10.23;;;2.42;;
28431;SDS011;15664;51.302;7.744;2023-05-17T02:23:16;9.87;;;3.13;;
28431;SDS011;15664;51.302;7.744;2023-05-17T02:25:41;12.40;;;3.50;;
28431;SDS011;15664;51.302;7.744;2023-05-17T02:28:07;9.40;;;4.00;;
28431;SDS011;15664;51.302;7.744;2023-05-17T02:30:33;13.13;;;3.92;;
28431;SDS011;15664;51.302;7.744;2023-05-17T02:32:59;9.57;;;3.77;;
28431;SDS011;15664;51.302;7.744;2023-05-17T02:35:24;13.67;;;3.87;;
28431;SDS011;15664;51.302;7.744;2023-05-17T02:37:50;12.90;;;3.90;;
28431;SDS011;15664;51.302;7.744;2023-05-17T02:40:16;10.70;;;3.50;;
28431;SDS011;15664;51.302;7.744;2023-05-17T02:42:41;12.98;;;4.65;;
28431;SDS011;15664;51.302;7.744;2023-05-17T02:45:07;10.77;;;3.37;;
28431;SDS011;15664;51.302;7.744;2023-05-17T02:47:32;13.60;;;3.93;;
28431;SDS011;15664;51.302;7.744;2023-05-17T02:49:58;12.02;;;3.75;;
28431;SDS011;15664;51.302;7.744;2023-05-17T02:52:24;13.03;;;3.67;;
28431;SDS011;15664;51.302;7.744;2023-05-17T02:54:49;13.60;;;3.87;;
28431;SDS011;15664;51.302;7.744;2023-05-17T02:57:15;10.80;;;3.78;;
28431;SDS011;15664;51.302;7.744;2023-05-17T02:59:41;14.60;;;4.03;;
28431;SDS011;15664;51.302;7.744;2023-05-17T03:02:06;15.10;;;4.20;;
28431;SDS011;15664;51.302;7.744;2023-05-17T03:04:32;11.25;;;4.13;;
28431;SDS011;15664;51.302;7.744;2023-05-17T03:06:58;10.00;;;3.10;;
28431;SDS011;15664;51.302;7.744;2023-05-17T03:09:24;7.80;;;3.58;;
28431;SDS011;15664;51.302;7.744;2023-05-17T03:11:50;4.80;;;1.92;;
28431;SDS011;15664;51.302;7.744;2023-05-17T03:14:22;12.35;;;3.55;;
28431;SDS011;15664;51.302;7.744;2023-05-17T03:16:48;10.03;;;3.10;;
28431;SDS011;15664;51.302;7.744;2023-05-17T03:19:13;9.13;;;3.00;;
28431;SDS011;15664;51.302;7.744;2023-05-17T03:21:41;15.77;;;4.57;;
28431;SDS011;15664;51.302;7.744;2023-05-17T03:24:06;10.37;;;3.97;;
28431;SDS011;15664;51.302;7.744;2023-05-17T03:26:33;12.90;;;3.85;;
28431;SDS011;15664;51.302;7.744;2023-05-17T03:28:59;12.75;;;4.78;;
28431;SDS011;15664;51.302;7.744;2023-05-17T03:31:24;23.83;;;5.40;;
28431;SDS011;15664;51.302;7.744;2023-05-17T03:33:50;11.77;;;3.90;;
28431;SDS011;15664;51.302;7.744;2023-05-17T03:36:17;5.35;;;2.63;;
28431;SDS011;15664;51.302;7.744;2023-05-17T03:38:42;14.98;;;3.83;;
28431;SDS011;15664;51.302;7.744;2023-05-17T03:41:09;21.47;;;5.83;;
28431;SDS011;15664;51.302;7.744;2023-05-17T03:43:34;11.15;;;4.07;;
28431;SDS011;15664;51.302;7.744;2023-05-17T03:46:00;9.70;;;3.80;;
28431;SDS011;15664;51.302;7.744;2023-05-17T03:48:27;14.68;;;4.05;;
28431;SDS011;15664;51.302;7.744;2023-05-17T03:50:52;10.73;;;3.87;;
28431;SDS011;15664;51.302;7.744;2023-05-17T03:53:18;15.57;;;4.30;;
28431;SDS011;15664;51.302;7.744;2023-05-17T03:55:43;20.17;;;4.83;;
28431;SDS011;15664;51.302;7.744;2023-05-17T03:58:09;6.82;;;3.03;;
28431;SDS011;15664;51.302;7.744;2023-05-17T04:00:34;20.27;;;7.93;;
28431;SDS011;15664;51.302;7.744;2023-05-17T04:03:06;22.23;;;6.37;;
28431;SDS011;15664;51.302;7.744;2023-05-17T04:05:32;15.07;;;4.72;;
28431;SDS011;15664;51.302;7.744;2023-05-17T04:07:58;15.63;;;5.22;;
28431;SDS011;15664;51.302;7.744;2023-05-17T04:10:24;6.20;;;2.87;;
28431;SDS011;15664;51.302;7.744;2023-05-17T04:12:49;14.17;;;5.10;;
28431;SDS011;15664;51.302;7.744;2023-05-17T04:15:15;4.40;;;2.08;;
28431;SDS011;15664;51.302;7.744;2023-05-17T04:17:41;26.83;;;7.90;;
28431;SDS011;15664;51.302;7.744;2023-05-17T04:20:07;11.90;;;5.33;;
28431;SDS011;15664;51.302;7.744;2023-05-17T04:22:33;9.50;;;4.63;;
28431;SDS011;15664;51.302;7.744;2023-05-17T04:24:59;15.40;;;4.97;;
28431;SDS011;15664;51.302;7.744;2023-05-17T04:27:25;7.80;;;2.92;;
28431;SDS011;15664;51.302;7.744;2023-05-17T04:29:51;12.57;;;4.28;;
28431;SDS011;15664;51.302;7.744;2023-05-17T04:32:17;15.57;;;5.53;;
28431;SDS011;15664;51.302;7.744;2023-05-17T04:34:43;7.32;;;3.05;;
28431;SDS011;15664;51.302;7.744;2023-05-17T04:37:08;23.50;;;5.83;;
28431;SDS011;15664;51.302;7.744;2023-05-17T04:39:35;18.13;;;5.78;;
28431;SDS011;15664;51.302;7.744;2023-05-17T04:42:01;15.90;;;5.65;;
28431;SDS011;15664;51.302;7.744;2023-05-17T04:44:28;12.73;;;4.73;;
28431;SDS011;15664;51.302;7.744;2023-05-17T04:46:54;14.30;;;5.20;;
28431;SDS011;15664;51.302;7.744;2023-05-17T04:49:19;11.00;;;4.33;;
28431;SDS011;15664;51.302;7.744;2023-05-17T04:51:45;12.07;;;4.13;;
28431;SDS011;15664;51.302;7.744;2023-05-17T04:54:11;12.50;;;3.90;;
28431;SDS011;15664;51.302;7.744;2023-05-17T04:56:36;3.70;;;1.83;;
28431;SDS011;15664;51.302;7.744;2023-05-17T04:59:05;15.85;;;5.47;;
28431;SDS011;15664;51.302;7.744;2023-05-17T05:01:30;10.30;;;4.00;;
28431;SDS011;15664;51.302;7.744;2023-05-17T05:03:57;7.60;;;3.23;;
28431;SDS011;15664;51.302;7.744;2023-05-17T05:06:23;11.45;;;4.28;;
28431;SDS011;15664;51.302;7.744;2023-05-17T05:08:48;13.83;;;4.03;;
28431;SDS011;15664;51.302;7.744;2023-05-17T05:11:14;10.55;;;4.25;;
28431;SDS011;15664;51.302;7.744;2023-05-17T05:13:40;22.58;;;6.22;;
28431;SDS011;15664;51.302;7.744;2023-05-17T05:16:06;13.50;;;5.32;;
28431;SDS011;15664;51.302;7.744;2023-05-17T05:18:33;14.90;;;5.90;;
28431;SDS011;15664;51.302;7.744;2023-05-17T05:20:58;8.43;;;3.83;;
28431;SDS011;15664;51.302;7.744;2023-05-17T05:23:24;9.27;;;3.78;;
28431;SDS011;15664;51.302;7.744;2023-05-17T05:25:50;10.30;;;3.07;;
28431;SDS011;15664;51.302;7.744;2023-05-17T05:28:16;7.10;;;3.17;;
28431;SDS011;15664;51.302;7.744;2023-05-17T05:30:42;10.85;;;3.58;;
28431;SDS011;15664;51.302;7.744;2023-05-17T05:33:09;13.30;;;3.15;;
28431;SDS011;15664;51.302;7.744;2023-05-17T05:35:35;13.50;;;3.70;;
28431;SDS011;15664;51.302;7.744;2023-05-17T05:38:00;10.23;;;3.72;;
28431;SDS011;15664;51.302;7.744;2023-05-17T05:40:26;12.63;;;3.70;;
28431;SDS011;15664;51.302;7.744;2023-05-17T05:42:52;10.07;;;3.75;;
28431;SDS011;15664;51.302;7.744;2023-05-17T05:45:18;12.30;;;4.72;;
28431;SDS011;15664;51.302;7.744;2023-05-17T05:47:46;9.18;;;3.78;;
28431;SDS011;15664;51.302;7.744;2023-05-17T05:50:12;14.07;;;4.03;;
28431;SDS011;15664;51.302;7.744;2023-05-17T05:52:39;12.93;;;3.37;;
28431;SDS011;15664;51.302;7.744;2023-05-17T05:55:04;9.33;;;3.20;;
28431;SDS011;15664;51.302;7.744;2023-05-17T05:57:29;16.23;;;2.75;;
28431;SDS011;15664;51.302;7.744;2023-05-17T05:59:55;8.87;;;2.83;;
28431;SDS011;15664;51.302;7.744;2023-05-17T06:02:21;7.30;;;2.60;;
28431;SDS011;15664;51.302;7.744;2023-05-17T06:04:46;6.00;;;2.70;;
28431;SDS011;15664;51.302;7.744;2023-05-17T06:07:15;7.00;;;2.53;;
28431;SDS011;15664;51.302;7.744;2023-05-17T06:09:41;7.35;;;2.45;;
28431;SDS011;15664;51.302;7.744;2023-05-17T06:12:07;12.75;;;2.65;;
28431;SDS011;15664;51.302;7.744;2023-05-17T06:14:32;11.40;;;2.40;;
28431;SDS011;15664;51.302;7.744;2023-05-17T06:16:58;12.38;;;2.03;;
28431;SDS011;15664;51.302;7.744;2023-05-17T06:19:24;8.53;;;2.60;;
28431;SDS011;15664;51.302;7.744;2023-05-17T06:21:49;7.47;;;1.80;;
28431;SDS011;15664;51.302;7.744;2023-05-17T06:24:15;9.45;;;2.45;;
28431;SDS011;15664;51.302;7.744;2023-05-17T06:26:41;3.87;;;1.67;;
28431;SDS011;15664;51.302;7.744;2023-05-17T06:29:08;9.48;;;2.22;;
28431;SDS011;15664;51.302;7.744;2023-05-17T06:31:33;10.03;;;2.77;;
28431;SDS011;15664;51.302;7.744;2023-05-17T06:33:59;9.27;;;2.00;;
28431;SDS011;15664;51.302;7.744;2023-05-17T06:36:24;16.70;;;2.40;;
28431;SDS011;15664;51.302;7.744;2023-05-17T06:38:50;6.80;;;1.87;;
28431;SDS011;15664;51.302;7.744;2023-05-17T06:41:15;5.70;;;1.40;;
28431;SDS011;15664;51.302;7.744;2023-05-17T06:43:40;10.73;;;2.07;;
28431;SDS011;15664;51.302;7.744;2023-05-17T06:46:06;5.90;;;1.67;;
28431;SDS011;15664;51.302;7.744;2023-05-17T06:48:31;13.05;;;2.17;;
28431;SDS011;15664;51.302;7.744;2023-05-17T06:50:56;13.63;;;1.73;;
28431;SDS011;15664;51.302;7.744;2023-05-17T06:53:22;3.77;;;1.17;;
28431;SDS011;15664;51.302;7.744;2023-05-17T06:55:47;7.53;;;1.87;;
28431;SDS011;15664;51.302;7.744;2023-05-17T06:58:12;8.97;;;2.10;;
28431;SDS011;15664;51.302;7.744;2023-05-17T07:00:38;10.23;;;2.27;;
28431;SDS011;15664;51.302;7.744;2023-05-17T07:03:03;5.97;;;1.90;;
28431;SDS011;15664;51.302;7.744;2023-05-17T07:05:29;7.73;;;1.70;;
28431;SDS011;15664;51.302;7.744;2023-05-17T07:07:55;6.53;;;1.90;;
28431;SDS011;15664;51.302;7.744;2023-05-17T07:10:20;7.17;;;1.43;;
28431;SDS011;15664;51.302;7.744;2023-05-17T07:12:46;4.05;;;1.88;;
28431;SDS011;15664;51.302;7.744;2023-05-17T07:15:11;5.93;;;1.70;;
28431;SDS011;15664;51.302;7.744;2023-05-17T07:17:37;5.90;;;1.20;;
28431;SDS011;15664;51.302;7.744;2023-05-17T07:20:02;3.67;;;1.33;;
28431;SDS011;15664;51.302;7.744;2023-05-17T07:22:27;12.38;;;1.33;;
28431;SDS011;15664;51.302;7.744;2023-05-17T07:24:53;10.77;;;2.30;;
28431;SDS011;15664;51.302;7.744;2023-05-17T07:27:18;10.02;;;1.70;;
28431;SDS011;15664;51.302;7.744;2023-05-17T07:29:44;8.65;;;1.98;;
28431;SDS011;15664;51.302;7.744;2023-05-17T07:32:10;6.47;;;1.60;;
28431;SDS011;15664;51.302;7.744;2023-05-17T07:34:35;6.43;;;1.30;;
28431;SDS011;15664;51.302;7.744;2023-05-17T07:37:01;6.80;;;1.50;;
28431;SDS011;15664;51.302;7.744;2023-05-17T07:39:27;8.82;;;1.88;;
28431;SDS011;15664;51.302;7.744;2023-05-17T07:41:52;5.00;;;1.60;;
28431;SDS011;15664;51.302;7.744;2023-05-17T07:44:18;9.15;;;1.50;;
28431;SDS011;15664;51.302;7.744;2023-05-17T07:46:46;7.07;;;1.52;;
28431;SDS011;15664;51.302;7.744;2023-05-17T07:49:11;11.23;;;1.57;;
28431;SDS011;15664;51.302;7.744;2023-05-17T07:51:37;7.57;;;1.38;;
28431;SDS011;15664;51.302;7.744;2023-05-17T07:54:02;7.10;;;1.57;;
28431;SDS011;15664;51.302;7.744;2023-05-17T07:56:28;3.78;;;1.20;;
28431;SDS011;15664;51.302;7.744;2023-05-17T07:58:54;12.50;;;1.70;;
28431;SDS011;15664;51.302;7.744;2023-05-17T08:01:19;2.08;;;0.90;;
28431;SDS011;15664;51.302;7.744;2023-05-17T08:03:44;5.22;;;1.58;;
28431;SDS011;15664;51.302;7.744;2023-05-17T08:06:13;3.43;;;1.00;;
28431;SDS011;15664;51.302;7.744;2023-05-17T08:08:38;7.72;;;1.40;;
28431;SDS011;15664;51.302;7.744;2023-05-17T08:11:03;3.33;;;1.13;;
28431;SDS011;15664;51.302;7.744;2023-05-17T08:13:29;3.40;;;1.30;;
28431;SDS011;15664;51.302;7.744;2023-05-17T08:15:54;10.30;;;1.90;;
28431;SDS011;15664;51.302;7.744;2023-05-17T08:18:21;6.93;;;1.95;;
28431;SDS011;15664;51.302;7.744;2023-05-17T08:20:47;8.33;;;1.90;;
28431;SDS011;15664;51.302;7.744;2023-05-17T08:23:14;6.40;;;1.50;;
28431;SDS011;15664;51.302;7.744;2023-05-17T08:25:39;5.13;;;1.30;;
28431;SDS011;15664;51.302;7.744;2023-05-17T08:28:04;6.87;;;1.60;;
28431;SDS011;15664;51.302;7.744;2023-05-17T08:30:30;6.90;;;1.42;;
28431;SDS011;15664;51.302;7.744;2023-05-17T08:32:55;4.03;;;1.20;;
28431;SDS011;15664;51.302;7.744;2023-05-17T08:35:20;10.43;;;1.83;;
28431;SDS011;15664;51.302;7.744;2023-05-17T08:37:46;6.00;;;1.55;;
28431;SDS011;15664;51.302;7.744;2023-05-17T08:40:12;5.80;;;1.60;;
28431;SDS011;15664;51.302;7.744;2023-05-17T08:42:38;5.53;;;1.35;;
28431;SDS011;15664;51.302;7.744;2023-05-17T08:45:05;5.30;;;1.20;;
28431;SDS011;15664;51.302;7.744;2023-05-17T08:47:33;6.53;;;1.20;;
28431;SDS011;15664;51.302;7.744;2023-05-17T08:50:01;4.47;;;1.42;;
28431;SDS011;15664;51.302;7.744;2023-05-17T08:52:29;5.00;;;1.15;;
28431;SDS011;15664;51.302;7.744;2023-05-17T08:54:56;3.70;;;1.02;;
28431;SDS011;15664;51.302;7.744;2023-05-17T08:57:23;3.20;;;1.17;;
28431;SDS011;15664;51.302;7.744;2023-05-17T08:59:49;2.37;;;1.07;;
28431;SDS011;15664;51.302;7.744;2023-05-17T09:02:16;5.10;;;1.13;;
28431;SDS011;15664;51.302;7.744;2023-05-17T09:04:41;4.33;;;1.30;;
28431;SDS011;15664;51.302;7.744;2023-05-17T09:07:06;4.35;;;1.33;;
28431;SDS011;15664;51.302;7.744;2023-05-17T09:09:33;4.97;;;1.30;;
28431;SDS011;15664;51.302;7.744;2023-05-17T09:11:58;5.23;;;1.33;;
28431;SDS011;15664;51.302;7.744;2023-05-17T09:14:23;2.20;;;0.90;;
28431;SDS011;15664;51.302;7.744;2023-05-17T09:16:54;4.93;;;1.30;;
28431;SDS011;15664;51.302;7.744;2023-05-17T09:19:19;7.10;;;1.10;;
28431;SDS011;15664;51.302;7.744;2023-05-17T09:21:45;1.83;;;0.83;;
28431;SDS011;15664;51.302;7.744;2023-05-17T09:24:11;5.22;;;1.20;;
28431;SDS011;15664;51.302;7.744;2023-05-17T09:26:41;1.70;;;0.90;;
28431;SDS011;15664;51.302;7.744;2023-05-17T09:29:06;2.67;;;0.98;;
28431;SDS011;15664;51.302;7.744;2023-05-17T09:31:32;6.57;;;1.50;;
28431;SDS011;15664;51.302;7.744;2023-05-17T09:33:58;4.88;;;1.30;;
28431;SDS011;15664;51.302;7.744;2023-05-17T09:36:23;5.33;;;1.40;;
28431;SDS011;15664;51.302;7.744;2023-05-17T09:38:55;7.80;;;1.30;;
28431;SDS011;15664;51.302;7.744;2023-05-17T09:41:20;6.22;;;1.48;;
28431;SDS011;15664;51.302;7.744;2023-05-17T09:43:47;2.38;;;1.13;;
28431;SDS011;15664;51.302;7.744;2023-05-17T09:46:13;6.30;;;1.40;;
28431;SDS011;15664;51.302;7.744;2023-05-17T09:48:40;3.13;;;1.40;;
28431;SDS011;15664;51.302;7.744;2023-05-17T09:51:07;2.97;;;0.98;;
28431;SDS011;15664;51.302;7.744;2023-05-17T09:53:33;6.63;;;1.00;;
28431;SDS011;15664;51.302;7.744;2023-05-17T09:56:05;5.47;;;1.23;;
28431;SDS011;15664;51.302;7.744;2023-05-17T09:58:31;5.67;;;1.20;;
28431;SDS011;15664;51.302;7.744;2023-05-17T10:00:58;3.83;;;1.70;;
28431;SDS011;15664;51.302;7.744;2023-05-17T10:03:25;5.23;;;1.23;;
28431;SDS011;15664;51.302;7.744;2023-05-17T10:05:51;3.85;;;1.20;;
28431;SDS011;15664;51.302;7.744;2023-05-17T10:08:19;8.32;;;1.70;;
28431;SDS011;15664;51.302;7.744;2023-05-17T10:10:45;5.45;;;1.73;;
28431;SDS011;15664;51.302;7.744;2023-05-17T10:13:12;5.40;;;1.60;;
28431;SDS011;15664;51.302;7.744;2023-05-17T10:15:38;6.00;;;1.20;;
28431;SDS011;15664;51.302;7.744;2023-05-17T10:18:04;5.45;;;1.42;;
28431;SDS011;15664;51.302;7.744;2023-05-17T10:20:31;4.53;;;1.40;;
28431;SDS011;15664;51.302;7.744;2023-05-17T10:22:57;4.28;;;1.20;;
28431;SDS011;15664;51.302;7.744;2023-05-17T10:25:24;5.13;;;1.40;;
28431;SDS011;15664;51.302;7.744;2023-05-17T10:27:49;3.63;;;0.95;;
28431;SDS011;15664;51.302;7.744;2023-05-17T10:30:15;1.70;;;1.00;;
28431;SDS011;15664;51.302;7.744;2023-05-17T10:32:42;9.73;;;1.55;;
28431;SDS011;15664;51.302;7.744;2023-05-17T10:35:08;7.30;;;1.73;;
28431;SDS011;15664;51.302;7.744;2023-05-17T10:37:34;5.73;;;1.57;;
28431;SDS011;15664;51.302;7.744;2023-05-17T10:39:59;3.15;;;1.20;;
28431;SDS011;15664;51.302;7.744;2023-05-17T10:42:24;5.53;;;1.40;;
28431;SDS011;15664;51.302;7.744;2023-05-17T10:44:51;4.97;;;1.60;;
28431;SDS011;15664;51.302;7.744;2023-05-17T10:47:17;9.23;;;1.73;;
28431;SDS011;15664;51.302;7.744;2023-05-17T10:49:43;5.90;;;1.53;;
28431;SDS011;15664;51.302;7.744;2023-05-17T10:52:15;5.05;;;1.58;;
28431;SDS011;15664;51.302;7.744;2023-05-17T10:54:41;7.18;;;1.23;;
28431;SDS011;15664;51.302;7.744;2023-05-17T10:57:07;7.53;;;1.77;;
28431;SDS011;15664;51.302;7.744;2023-05-17T10:59:33;6.50;;;1.80;;
28431;SDS011;15664;51.302;7.744;2023-05-17T11:02:06;6.53;;;1.45;;
28431;SDS011;15664;51.302;7.744;2023-05-17T11:04:35;3.65;;;1.33;;
28431;SDS011;15664;51.302;7.744;2023-05-17T11:09:42;5.13;;;1.45;;
28431;SDS011;15664;51.302;7.744;2023-05-17T11:12:11;4.72;;;1.13;;
28431;SDS011;15664;51.302;7.744;2023-05-17T11:14:55;2.33;;;0.98;;
28431;SDS011;15664;51.302;7.744;2023-05-17T11:17:23;8.07;;;1.60;;
28431;SDS011;15664;51.302;7.744;2023-05-17T11:20:07;6.60;;;1.67;;
28431;SDS011;15664;51.302;7.744;2023-05-17T11:22:37;6.80;;;1.80;;
28431;SDS011;15664;51.302;7.744;2023-05-17T11:25:10;3.40;;;1.48;;
28431;SDS011;15664;51.302;7.744;2023-05-17T11:27:36;6.05;;;1.33;;
28431;SDS011;15664;51.302;7.744;2023-05-17T11:30:08;3.42;;;1.48;;
28431;SDS011;15664;51.302;7.744;2023-05-17T11:32:34;6.37;;;1.30;;
28431;SDS011;15664;51.302;7.744;2023-05-17T11:35:00;7.22;;;1.65;;
28431;SDS011;15664;51.302;7.744;2023-05-17T11:37:26;8.13;;;1.80;;
28431;SDS011;15664;51.302;7.744;2023-05-17T11:40:04;4.97;;;1.27;;
28431;SDS011;15664;51.302;7.744;2023-05-17T11:42:30;7.03;;;1.48;;
28431;SDS011;15664;51.302;7.744;2023-05-17T11:44:56;5.00;;;1.47;;
28431;SDS011;15664;51.302;7.744;2023-05-17T11:47:22;4.85;;;1.80;;
28431;SDS011;15664;51.302;7.744;2023-05-17T11:49:47;4.70;;;1.30;;
28431;SDS011;15664;51.302;7.744;2023-05-17T11:52:15;5.50;;;1.90;;
28431;SDS011;15664;51.302;7.744;2023-05-17T11:54:41;4.22;;;1.35;;
28431;SDS011;15664;51.302;7.744;2023-05-17T11:57:07;5.97;;;1.90;;
28431;SDS011;15664;51.302;7.744;2023-05-17T11:59:36;5.83;;;1.80;;
28431;SDS011;15664;51.302;7.744;2023-05-17T12:02:03;3.85;;;1.52;;
28431;SDS011;15664;51.302;7.744;2023-05-17T12:04:28;4.93;;;1.40;;
28431;SDS011;15664;51.302;7.744;2023-05-17T12:06:54;5.53;;;1.60;;
28431;SDS011;15664;51.302;7.744;2023-05-17T12:09:19;7.43;;;1.60;;
28431;SDS011;15664;51.302;7.744;2023-05-17T12:11:46;3.80;;;1.70;;
28431;SDS011;15664;51.302;7.744;2023-05-17T12:14:15;3.87;;;1.80;;
28431;SDS011;15664;51.302;7.744;2023-05-17T12:16:41;9.52;;;2.25;;
28431;SDS011;15664;51.302;7.744;2023-05-17T12:19:17;7.20;;;2.25;;
28431;SDS011;15664;51.302;7.744;2023-05-17T12:21:44;5.50;;;1.83;;
28431;SDS011;15664;51.302;7.744;2023-05-17T12:24:10;7.78;;;2.10;;
28431;SDS011;15664;51.302;7.744;2023-05-17T12:26:35;7.03;;;2.17;;
28431;SDS011;15664;51.302;7.744;2023-05-17T12:29:06;6.37;;;1.53;;
28431;SDS011;15664;51.302;7.744;2023-05-17T12:31:32;9.48;;;1.92;;
28431;SDS011;15664;51.302;7.744;2023-05-17T12:33:58;8.15;;;1.80;;
28431;SDS011;15664;51.302;7.744;2023-05-17T12:36:24;2.93;;;1.10;;
28431;SDS011;15664;51.302;7.744;2023-05-17T12:38:52;6.78;;;1.77;;
28431;SDS011;15664;51.302;7.744;2023-05-17T12:41:17;5.65;;;1.67;;
28431;SDS011;15664;51.302;7.744;2023-05-17T12:43:44;5.63;;;1.90;;
28431;SDS011;15664;51.302;7.744;2023-05-17T12:46:16;4.50;;;1.60;;
28431;SDS011;15664;51.302;7.744;2023-05-17T12:48:45;8.40;;;2.23;;
28431;SDS011;15664;51.302;7.744;2023-05-17T12:53:37;4.13;;;1.60;;
28431;SDS011;15664;51.302;7.744;2023-05-17T12:56:02;7.85;;;2.45;;
28431;SDS011;15664;51.302;7.744;2023-05-17T12:58:27;6.27;;;2.13;;
28431;SDS011;15664;51.302;7.744;2023-05-17T13:00:56;5.03;;;1.80;;
28431;SDS011;15664;51.302;7.744;2023-05-17T13:03:22;5.80;;;1.95;;
28431;SDS011;15664;51.302;7.744;2023-05-17T13:05:56;4.63;;;1.67;;
28431;SDS011;15664;51.302;7.744;2023-05-17T13:08:21;5.50;;;2.22;;
28431;SDS011;15664;51.302;7.744;2023-05-17T13:10:48;6.50;;;2.05;;
28431;SDS011;15664;51.302;7.744;2023-05-17T13:13:20;6.53;;;2.00;;
28431;SDS011;15664;51.302;7.744;2023-05-17T13:15:46;5.78;;;1.77;;
28431;SDS011;15664;51.302;7.744;2023-05-17T13:18:12;4.77;;;1.70;;
28431;SDS011;15664;51.302;7.744;2023-05-17T13:20:43;5.22;;;1.90;;
28431;SDS011;15664;51.302;7.744;2023-05-17T13:23:09;6.15;;;2.13;;
28431;SDS011;15664;51.302;7.744;2023-05-17T13:25:34;3.80;;;1.67;;
28431;SDS011;15664;51.302;7.744;2023-05-17T13:28:02;5.97;;;1.98;;
28431;SDS011;15664;51.302;7.744;2023-05-17T13:30:29;6.97;;;1.85;;
28431;SDS011;15664;51.302;7.744;2023-05-17T13:32:55;7.53;;;1.90;;
28431;SDS011;15664;51.302;7.744;2023-05-17T13:35:20;7.50;;;2.03;;
28431;SDS011;15664;51.302;7.744;2023-05-17T13:37:46;6.47;;;2.20;;
28431;SDS011;15664;51.302;7.744;2023-05-17T13:40:11;5.00;;;1.47;;
28431;SDS011;15664;51.302;7.744;2023-05-17T13:42:36;6.27;;;2.33;;
28431;SDS011;15664;51.302;7.744;2023-05-17T13:45:02;8.30;;;2.20;;
28431;SDS011;15664;51.302;7.744;2023-05-17T13:47:28;5.68;;;1.50;;
28431;SDS011;15664;51.302;7.744;2023-05-17T13:49:55;3.55;;;1.60;;
28431;SDS011;15664;51.302;7.744;2023-05-17T13:52:21;5.07;;;1.80;;
28431;SDS011;15664;51.302;7.744;2023-05-17T13:54:47;5.28;;;1.63;;
28431;SDS011;15664;51.302;7.744;2023-05-17T13:57:12;6.03;;;2.20;;
28431;SDS011;15664;51.302;7.744;2023-05-17T13:59:37;7.03;;;1.90;;
28431;SDS011;15664;51.302;7.744;2023-05-17T14:02:03;6.80;;;1.97;;
28431;SDS011;15664;51.302;7.744;2023-05-17T14:04:28;7.05;;;1.90;;
28431;SDS011;15664;51.302;7.744;2023-05-17T14:06:54;9.93;;;2.07;;
28431;SDS011;15664;51.302;7.744;2023-05-17T14:09:19;5.75;;;1.90;;
28431;SDS011;15664;51.302;7.744;2023-05-17T14:11:45;5.53;;;1.80;;
28431;SDS011;15664;51.302;7.744;2023-05-17T14:14:10;4.68;;;1.60;;
28431;SDS011;15664;51.302;7.744;2023-05-17T14:16:36;8.17;;;2.30;;
28431;SDS011;15664;51.302;7.744;2023-05-17T14:19:01;9.38;;;2.78;;
28431;SDS011;15664;51.302;7.744;2023-05-17T14:21:27;4.40;;;1.73;;
28431;SDS011;15664;51.302;7.744;2023-05-17T14:23:52;4.93;;;1.63;;
28431;SDS011;15664;51.302;7.744;2023-05-17T14:26:17;3.97;;;1.67;;
28431;SDS011;15664;51.302;7.744;2023-05-17T14:28:42;7.23;;;2.37;;
28431;SDS011;15664;51.302;7.744;2023-05-17T14:31:08;4.43;;;1.87;;
28431;SDS011;15664;51.302;7.744;2023-05-17T14:33:33;4.35;;;1.60;;
28431;SDS011;15664;51.302;7.744;2023-05-17T14:35:59;7.47;;;1.90;;
28431;SDS011;15664;51.302;7.744;2023-05-17T14:38:24;8.17;;;1.80;;
28431;SDS011;15664;51.302;7.744;2023-05-17T14:40:50;5.60;;;2.03;;
28431;SDS011;15664;51.302;7.744;2023-05-17T14:43:15;6.33;;;2.00;;
28431;SDS011;15664;51.302;7.744;2023-05-17T14:45:40;7.05;;;1.98;;
28431;SDS011;15664;51.302;7.744;2023-05-17T14:48:05;4.43;;;1.40;;
28431;SDS011;15664;51.302;7.744;2023-05-17T14:50:32;4.90;;;2.00;;